createdAt,value
2019-04-07T00:00:47.791Z,43.27
2019-04-07T00:03:17.390Z,43.93
2019-04-07T00:05:47.243Z,42.37
2019-04-07T00:08:16.967Z,45.07
2019-04-07T00:10:46.877Z,44.23
2019-04-07T00:13:17.120Z,44.77
2019-04-07T00:15:46.669Z,45.00
2019-04-07T00:18:16.863Z,44.57
2019-04-07T00:20:46.371Z,43.10
2019-04-07T00:23:16.255Z,44.70
2019-04-07T00:25:45.830Z,44.27
2019-04-07T00:28:16.397Z,45.23
2019-04-07T00:30:45.852Z,47.10
2019-04-07T00:33:15.218Z,42.73
2019-04-07T00:35:44.672Z,46.57
2019-04-07T00:38:14.132Z,44.00
2019-04-07T00:40:43.787Z,44.63
2019-04-07T00:43:13.695Z,44.33
2019-04-07T00:45:43.222Z,45.40
2019-04-07T00:48:13.161Z,46.37
2019-04-07T00:50:42.622Z,46.60
2019-04-07T00:53:12.351Z,46.17
2019-04-07T00:55:42.358Z,46.23
2019-04-07T00:58:11.874Z,44.47
2019-04-07T01:00:42.466Z,46.77
2019-04-07T01:03:12.303Z,46.47
2019-04-07T01:05:43.548Z,47.80
2019-04-07T01:08:13.911Z,46.03
2019-04-07T01:10:43.348Z,47.57
2019-04-07T01:13:12.973Z,47.37
2019-04-07T01:15:42.766Z,46.40
2019-04-07T01:18:13.131Z,46.10
2019-04-07T01:20:43.025Z,45.03
2019-04-07T01:23:12.738Z,47.47
2019-04-07T01:25:42.112Z,46.57
2019-04-07T01:28:12.082Z,47.80
2019-04-07T01:30:41.600Z,46.67
2019-04-07T01:33:11.718Z,46.53
2019-04-07T01:35:47.952Z,47.50
2019-04-07T01:38:12.610Z,46.40
2019-04-07T01:40:44.330Z,47.13
2019-04-07T01:43:22.744Z,47.97
2019-04-07T01:45:56.750Z,47.90
2019-04-07T01:48:39.762Z,47.67
2019-04-07T01:51:10.816Z,49.83
2019-04-07T01:53:51.005Z,48.10
2019-04-07T01:56:25.110Z,50.70
2019-04-07T01:58:58.914Z,51.83
2019-04-07T02:01:30.619Z,51.63
2019-04-07T02:04:05.951Z,49.00
2019-04-07T02:06:53.910Z,50.43
2019-04-07T02:09:25.672Z,49.57
2019-04-07T02:12:00.615Z,48.47
2019-04-07T02:14:37.815Z,48.77
2019-04-07T02:17:14.730Z,50.73
2019-04-07T02:19:57.085Z,49.47
2019-04-07T02:22:37.713Z,49.60
2019-04-07T02:25:20.813Z,50.53
2019-04-07T02:27:54.642Z,49.73
2019-04-07T02:30:35.179Z,52.10
2019-04-07T02:33:12.647Z,51.80
2019-04-07T02:35:46.887Z,54.13
2019-04-07T02:38:19.037Z,53.90
2019-04-07T02:41:06.669Z,54.47
2019-04-07T02:43:42.505Z,53.23
2019-04-07T02:46:16.944Z,55.80
2019-04-07T02:48:51.319Z,56.90
2019-04-07T02:51:28.431Z,56.40
2019-04-07T02:54:02.540Z,54.50
2019-04-07T02:56:42.445Z,58.07
2019-04-07T02:59:14.669Z,55.73
2019-04-07T03:01:48.475Z,55.53
2019-04-07T03:04:20.537Z,55.90
2019-04-07T03:07:06.841Z,56.63
2019-04-07T03:09:47.399Z,54.03
2019-04-07T03:12:25.126Z,54.40
2019-04-07T03:14:59.007Z,58.00
2019-04-07T03:17:42.056Z,57.10
2019-04-07T03:20:16.868Z,54.50
2019-04-07T03:22:57.087Z,55.43
2019-04-07T03:25:45.148Z,54.90
2019-04-07T03:28:16.308Z,54.97
2019-04-07T03:30:49.410Z,56.10
2019-04-07T03:33:25.340Z,56.93
2019-04-07T03:36:01.815Z,56.83
2019-04-07T03:38:33.509Z,54.50
2019-04-07T03:41:22.471Z,55.03
2019-04-07T03:43:59.325Z,56.60
2019-04-07T03:46:47.442Z,56.70
2019-04-07T03:49:18.784Z,58.60
2019-04-07T03:51:49.891Z,56.97
2019-04-07T03:54:26.960Z,56.23
2019-04-07T03:57:00.984Z,58.77
2019-04-07T03:59:35.285Z,57.43
2019-04-07T04:02:15.393Z,59.77
2019-04-07T04:04:46.789Z,56.93
2019-04-07T04:07:28.464Z,57.67
2019-04-07T04:09:53.724Z,56.27
2019-04-07T04:12:27.861Z,56.30
2019-04-07T04:15:00.197Z,55.53
2019-04-07T04:17:30.673Z,57.40
2019-04-07T04:20:00.262Z,56.67
2019-04-07T04:22:30.676Z,54.50
2019-04-07T04:25:00.931Z,58.27
2019-04-07T04:27:31.291Z,54.50
2019-04-07T04:30:01.161Z,56.77
2019-04-07T04:32:31.578Z,53.73
2019-04-07T04:35:01.097Z,56.70
2019-04-07T04:37:39.923Z,50.83
2019-04-07T04:40:01.638Z,52.17
2019-04-07T04:42:31.242Z,52.80
2019-04-07T04:45:02.432Z,54.27
2019-04-07T04:47:32.786Z,48.67
2019-04-07T04:50:02.538Z,51.20
2019-04-07T04:52:32.009Z,52.83
2019-04-07T04:55:02.023Z,50.87
2019-04-07T04:57:32.125Z,52.27
2019-04-07T05:00:02.184Z,54.67
2019-04-07T05:02:32.708Z,55.57
2019-04-07T05:05:02.668Z,54.93
2019-04-07T05:07:32.205Z,52.07
2019-04-07T05:10:01.759Z,52.50
2019-04-07T05:12:32.286Z,51.00
2019-04-07T05:15:01.827Z,52.10
2019-04-07T05:17:32.674Z,51.87
2019-04-07T05:20:02.625Z,51.70
2019-04-07T05:22:32.149Z,51.57
2019-04-07T05:25:02.253Z,53.43
2019-04-07T05:27:31.716Z,52.90
2019-04-07T05:30:01.298Z,55.20
2019-04-07T05:32:31.117Z,55.57
2019-04-07T05:35:01.049Z,54.00
2019-04-07T05:37:32.109Z,52.27
2019-04-07T05:40:02.905Z,50.57
2019-04-07T05:42:32.860Z,50.30
2019-04-07T05:45:02.571Z,47.90
2019-04-07T05:47:33.017Z,51.43
2019-04-07T05:50:04.063Z,52.33
2019-04-07T05:52:36.867Z,50.80
2019-04-07T05:55:06.059Z,52.20
2019-04-07T05:57:36.067Z,57.00
2019-04-07T06:00:13.629Z,56.97
2019-04-07T06:02:42.836Z,57.73
2019-04-07T06:05:12.413Z,56.03
2019-04-07T06:07:42.532Z,59.33
2019-04-07T06:10:12.260Z,58.50
2019-04-07T06:12:44.891Z,59.43
2019-04-07T06:15:17.676Z,57.60
2019-04-07T06:17:44.681Z,54.60
2019-04-07T06:20:15.912Z,48.63
2019-04-07T06:22:46.833Z,45.77
2019-04-07T06:25:16.722Z,43.83
2019-04-07T06:27:46.729Z,42.20
2019-04-07T06:30:17.579Z,42.13
2019-04-07T06:32:47.281Z,41.47
2019-04-07T06:35:16.966Z,43.23
2019-04-07T06:37:46.554Z,42.73
2019-04-07T06:40:20.394Z,41.80
2019-04-07T06:42:48.803Z,42.27
2019-04-07T06:45:23.653Z,42.87
2019-04-07T06:48:00.224Z,44.57
2019-04-07T06:50:53.110Z,46.40
2019-04-07T06:53:21.176Z,47.17
2019-04-07T06:56:11.033Z,48.93
2019-04-07T06:58:45.006Z,55.60
2019-04-07T07:01:26.503Z,58.87
2019-04-07T07:04:13.990Z,59.47
2019-04-07T07:06:48.107Z,60.27
2019-04-07T07:09:30.785Z,61.83
2019-04-07T07:12:05.054Z,56.77
2019-04-07T07:14:46.938Z,60.80
2019-04-07T07:17:23.830Z,58.47
2019-04-07T07:20:05.647Z,60.40
2019-04-07T07:22:40.208Z,59.97
2019-04-07T07:25:10.332Z,59.47
2019-04-07T07:27:41.565Z,57.40
2019-04-07T07:30:10.721Z,59.97
2019-04-07T07:32:40.886Z,61.80
2019-04-07T07:35:14.467Z,63.57
2019-04-07T07:37:41.655Z,60.97
2019-04-07T07:40:12.422Z,58.80
2019-04-07T07:42:42.249Z,60.97
2019-04-07T07:45:13.934Z,58.77
2019-04-07T07:47:43.779Z,59.17
2019-04-07T07:50:13.595Z,62.67
2019-04-07T07:52:43.135Z,60.43
2019-04-07T07:55:13.160Z,58.30
2019-04-07T07:57:42.636Z,58.87
2019-04-07T08:00:12.574Z,61.53
2019-04-07T08:02:42.021Z,57.27
2019-04-07T08:05:11.528Z,60.93
2019-04-07T08:07:43.643Z,62.27
2019-04-07T08:10:12.717Z,61.33
2019-04-07T08:12:42.300Z,61.67
2019-04-07T08:15:12.608Z,62.67
2019-04-07T08:17:42.128Z,57.13
2019-04-07T08:20:13.029Z,60.40
2019-04-07T08:22:43.760Z,59.80
2019-04-07T08:25:14.202Z,59.63
2019-04-07T08:27:45.242Z,60.10
2019-04-07T08:30:14.852Z,59.23
2019-04-07T08:32:44.281Z,58.23
2019-04-07T08:35:14.275Z,57.23
2019-04-07T08:37:46.465Z,60.83
2019-04-07T08:40:15.277Z,57.30
2019-04-07T08:42:48.347Z,55.37
2019-04-07T08:45:17.887Z,56.93
2019-04-07T08:47:49.549Z,58.20
2019-04-07T08:50:20.903Z,54.00
2019-04-07T08:52:49.869Z,57.33
2019-04-07T08:55:20.453Z,56.07
2019-04-07T08:57:50.619Z,56.67
2019-04-07T09:00:21.981Z,51.70
2019-04-07T09:03:01.638Z,54.50
2019-04-07T09:05:27.696Z,53.67
2019-04-07T09:07:54.072Z,55.10
2019-04-07T09:10:27.805Z,49.60
2019-04-07T09:13:01.705Z,50.93
2019-04-07T09:15:29.919Z,50.80
2019-04-07T09:18:06.966Z,51.50
2019-04-07T09:20:40.319Z,50.13
2019-04-07T09:23:11.346Z,50.90
2019-04-07T09:25:58.523Z,50.23
2019-04-07T09:28:33.330Z,50.53
2019-04-07T09:31:07.432Z,49.05
2019-04-07T09:33:38.850Z,49.23
2019-04-07T09:36:24.951Z,50.33
2019-04-07T09:39:13.351Z,48.23
2019-04-07T09:41:55.149Z,44.90
2019-04-07T09:44:26.581Z,46.13
2019-04-07T09:47:09.911Z,44.77
2019-04-07T09:49:57.349Z,43.80
2019-04-07T09:52:31.860Z,42.90
2019-04-07T09:55:19.136Z,43.00
2019-04-07T09:57:51.787Z,38.73
2019-04-07T10:00:24.006Z,38.43
2019-04-07T10:03:14.906Z,40.90
2019-04-07T10:05:53.848Z,38.20
2019-04-07T10:08:28.197Z,34.83
2019-04-07T10:11:03.030Z,31.93
2019-04-07T10:13:43.201Z,31.67
2019-04-07T10:16:26.987Z,31.63
2019-04-07T10:19:10.952Z,30.97
2019-04-07T10:21:45.009Z,29.98
2019-04-07T10:24:25.880Z,30.10
2019-04-07T10:27:17.529Z,29.50
2019-04-07T10:29:48.151Z,30.60
2019-04-07T10:32:20.052Z,30.20
2019-04-07T10:34:51.145Z,30.70
2019-04-07T10:37:38.930Z,29.80
2019-04-07T10:40:25.377Z,27.37
2019-04-07T10:43:08.600Z,32.73
2019-04-07T10:45:52.014Z,29.52
2019-04-07T10:48:32.183Z,23.85
2019-04-07T10:51:06.791Z,17.35
2019-04-07T10:53:43.878Z,14.80
2019-04-07T10:56:24.282Z,12.45
2019-04-07T10:59:01.845Z,13.13
2019-04-07T11:01:36.336Z,12.53
2019-04-07T11:04:17.062Z,12.00
2019-04-07T11:07:04.558Z,14.13
2019-04-07T11:09:48.107Z,13.50
2019-04-07T11:12:25.108Z,15.68
2019-04-07T11:14:57.102Z,14.98
2019-04-07T11:17:31.544Z,14.65
2019-04-07T11:20:02.964Z,14.10
2019-04-07T11:22:50.531Z,13.00
2019-04-07T11:25:24.325Z,14.65
2019-04-07T11:27:55.505Z,14.33
2019-04-07T11:30:35.579Z,13.85
2019-04-07T11:33:07.128Z,12.23
2019-04-07T11:35:38.290Z,12.60
2019-04-07T11:38:10.198Z,12.30
2019-04-07T11:40:57.832Z,11.10
2019-04-07T11:43:28.992Z,11.38
2019-04-07T11:46:07.414Z,10.73
2019-04-07T11:48:44.969Z,11.30
2019-04-07T11:51:22.804Z,9.18
2019-04-07T11:53:59.904Z,11.68
2019-04-07T11:56:49.084Z,9.70
2019-04-07T11:59:26.321Z,10.00
2019-04-07T12:01:57.444Z,11.12
2019-04-07T12:04:29.469Z,11.90
2019-04-07T12:07:03.545Z,8.83
2019-04-07T12:09:37.188Z,9.38
2019-04-07T12:12:24.666Z,9.98
2019-04-07T12:15:06.316Z,13.20
2019-04-07T12:17:53.411Z,13.08
2019-04-07T12:20:34.941Z,14.33
2019-04-07T12:23:10.244Z,13.25
2019-04-07T12:25:41.648Z,12.85
2019-04-07T12:28:21.796Z,12.60
2019-04-07T12:31:11.869Z,12.65
2019-04-07T12:33:50.596Z,13.80
2019-04-07T12:36:26.682Z,12.95
2019-04-07T12:38:58.546Z,11.20
2019-04-07T12:41:45.891Z,9.53
2019-04-07T12:44:17.133Z,9.18
2019-04-07T12:46:48.248Z,9.93
2019-04-07T12:49:33.355Z,8.93
2019-04-07T12:52:07.390Z,8.90
2019-04-07T12:54:43.543Z,8.60
2019-04-07T12:57:29.000Z,9.65
2019-04-07T13:00:16.781Z,10.23
2019-04-07T13:02:51.650Z,9.03
2019-04-07T13:05:24.127Z,9.70
2019-04-07T13:08:08.050Z,10.38
2019-04-07T13:10:39.423Z,9.18
2019-04-07T13:13:13.470Z,9.63
2019-04-07T13:15:49.277Z,9.25
2019-04-07T13:18:18.813Z,10.18
2019-04-07T13:20:53.285Z,9.93
2019-04-07T13:23:27.634Z,10.13
2019-04-07T13:26:10.689Z,10.53
2019-04-07T13:28:44.577Z,10.68
2019-04-07T13:31:31.920Z,10.28
2019-04-07T13:34:20.916Z,10.43
2019-04-07T13:36:58.017Z,10.35
2019-04-07T13:39:42.831Z,10.75
2019-04-07T13:42:19.622Z,11.53
2019-04-07T13:45:03.926Z,11.57
2019-04-07T13:47:42.264Z,11.57
2019-04-07T13:50:14.082Z,10.65
2019-04-07T13:52:54.152Z,11.48
2019-04-07T13:55:27.394Z,10.82
2019-04-07T13:58:15.067Z,12.00
2019-04-07T14:00:48.792Z,11.75
2019-04-07T14:03:37.031Z,11.28
2019-04-07T14:06:14.928Z,11.00
2019-04-07T14:08:50.554Z,11.40
2019-04-07T14:11:27.424Z,10.63
2019-04-07T14:14:07.976Z,9.58
2019-04-07T14:16:40.092Z,10.05
2019-04-07T14:19:11.376Z,10.20
2019-04-07T14:21:58.874Z,10.48
2019-04-07T14:24:47.221Z,11.53
2019-04-07T14:27:18.666Z,10.38
2019-04-07T14:29:53.006Z,9.83
2019-04-07T14:32:24.111Z,9.13
2019-04-07T14:35:01.114Z,10.00
2019-04-07T14:37:51.278Z,9.50
2019-04-07T14:40:38.882Z,9.80
2019-04-07T14:43:13.597Z,10.00
2019-04-07T14:45:48.766Z,8.60
2019-04-07T14:48:32.568Z,8.03
2019-04-07T14:51:06.596Z,8.85
2019-04-07T14:53:47.172Z,8.70
2019-04-07T14:56:24.632Z,8.58
2019-04-07T14:58:56.286Z,8.68
2019-04-07T15:01:36.798Z,8.30
2019-04-07T15:04:06.467Z,8.35
2019-04-07T15:06:36.640Z,7.72
2019-04-07T15:09:10.986Z,8.80
2019-04-07T15:11:42.298Z,7.62
2019-04-07T15:14:12.691Z,7.37
2019-04-07T15:16:44.755Z,8.05
2019-04-07T15:19:14.554Z,7.67
2019-04-07T15:21:44.265Z,7.50
2019-04-07T15:24:13.972Z,7.95
2019-04-07T15:26:46.963Z,7.05
2019-04-07T15:29:14.712Z,7.78
2019-04-07T15:31:44.343Z,8.60
2019-04-07T15:34:14.419Z,8.55
2019-04-07T15:36:47.986Z,8.13
2019-04-07T15:39:16.234Z,8.40
2019-04-07T15:41:46.738Z,7.87
2019-04-07T15:44:16.889Z,8.63
2019-04-07T15:46:50.894Z,8.88
2019-04-07T15:49:18.394Z,7.78
2019-04-07T15:51:48.773Z,8.05
2019-04-07T15:54:22.317Z,8.10
2019-04-07T15:56:50.493Z,7.28
2019-04-07T15:59:21.013Z,7.65
2019-04-07T16:01:50.598Z,7.83
2019-04-07T16:04:25.215Z,7.15
2019-04-07T16:06:51.611Z,8.10
2019-04-07T16:09:31.475Z,8.15
2019-04-07T16:11:53.277Z,6.87
2019-04-07T16:14:23.077Z,7.42
2019-04-07T16:16:54.053Z,8.13
2019-04-07T16:19:36.493Z,7.03
2019-04-07T16:21:55.470Z,6.75
2019-04-07T16:24:25.762Z,7.70
2019-04-07T16:26:55.272Z,7.03
2019-04-07T16:29:25.099Z,6.35
2019-04-07T16:31:57.077Z,6.85
2019-04-07T16:34:26.309Z,6.80
2019-04-07T16:36:58.859Z,6.42
2019-04-07T16:39:29.176Z,6.45
2019-04-07T16:41:58.107Z,6.65
2019-04-07T16:44:27.782Z,6.90
2019-04-07T16:46:59.171Z,5.97
2019-04-07T16:49:28.313Z,6.65
2019-04-07T16:51:59.977Z,6.30
2019-04-07T16:54:28.946Z,6.17
2019-04-07T16:56:58.745Z,5.90
2019-04-07T16:59:28.747Z,5.70
2019-04-07T17:01:59.110Z,6.35
2019-04-07T17:04:28.848Z,5.67
2019-04-07T17:07:18.125Z,6.45
2019-04-07T17:09:48.933Z,6.17
2019-04-07T17:12:18.512Z,5.90
2019-04-07T17:14:49.051Z,5.62
2019-04-07T17:17:21.549Z,5.83
2019-04-07T17:19:49.947Z,5.10
2019-04-07T17:22:20.008Z,5.70
2019-04-07T17:24:50.171Z,5.37
2019-04-07T17:27:20.502Z,6.28
2019-04-07T17:29:54.071Z,5.28
2019-04-07T17:32:23.213Z,5.53
2019-04-07T17:34:53.031Z,5.45
2019-04-07T17:37:25.956Z,4.85
2019-04-07T17:40:14.081Z,5.60
2019-04-07T17:42:42.542Z,5.87
2019-04-07T17:45:23.585Z,5.37
2019-04-07T17:47:55.056Z,5.58
2019-04-07T17:50:32.123Z,5.20
2019-04-07T17:53:14.130Z,5.65
2019-04-07T17:55:45.781Z,5.40
2019-04-07T17:58:20.239Z,5.55
2019-04-07T18:01:00.417Z,5.17
2019-04-07T18:03:32.821Z,5.28
2019-04-07T18:06:20.270Z,5.20
2019-04-07T18:09:10.798Z,5.83
2019-04-07T18:11:41.323Z,5.45
2019-04-07T18:14:31.264Z,5.17
2019-04-07T18:17:15.117Z,5.35
2019-04-07T18:20:08.304Z,5.47
2019-04-07T18:22:37.188Z,5.97
2019-04-07T18:25:21.708Z,5.30
2019-04-07T18:27:55.486Z,5.83
2019-04-07T18:30:33.612Z,7.20
2019-04-07T18:33:05.472Z,11.15
2019-04-07T18:35:37.605Z,14.20
2019-04-07T18:38:14.765Z,11.10
2019-04-07T18:40:49.507Z,9.35
2019-04-07T18:43:21.519Z,7.05
2019-04-07T18:45:58.960Z,5.70
2019-04-07T18:48:45.811Z,5.78
2019-04-07T18:51:17.750Z,5.70
2019-04-07T18:53:48.978Z,5.45
2019-04-07T18:56:21.376Z,5.10
2019-04-07T18:58:58.572Z,5.90
2019-04-07T19:01:30.215Z,6.53
2019-04-07T19:04:16.046Z,6.05
2019-04-07T19:06:48.485Z,5.92
2019-04-07T19:09:30.266Z,5.85
2019-04-07T19:12:13.424Z,5.58
2019-04-07T19:15:02.461Z,5.87
2019-04-07T19:17:28.242Z,6.28
2019-04-07T19:20:08.837Z,7.10
2019-04-07T19:22:56.223Z,9.97
2019-04-07T19:25:27.557Z,8.43
2019-04-07T19:28:08.131Z,7.50
2019-04-07T19:30:41.533Z,7.97
2019-04-07T19:33:15.031Z,7.22
2019-04-07T19:35:49.756Z,6.30
2019-04-07T19:38:37.866Z,6.62
2019-04-07T19:41:08.910Z,6.50
2019-04-07T19:43:55.288Z,7.42
2019-04-07T19:46:44.132Z,8.85
2019-04-07T19:49:27.294Z,11.95
2019-04-07T19:52:05.425Z,15.03
2019-04-07T19:54:52.834Z,17.30
2019-04-07T19:57:24.095Z,17.73
2019-04-07T19:59:55.204Z,17.02
2019-04-07T20:02:32.711Z,19.25
2019-04-07T20:05:19.530Z,20.15
2019-04-07T20:07:56.105Z,19.67
2019-04-07T20:10:39.310Z,21.68
2019-04-07T20:13:26.391Z,23.30
2019-04-07T20:15:58.842Z,26.00
2019-04-07T20:18:37.345Z,33.45
2019-04-07T20:21:15.728Z,33.57
2019-04-07T20:23:44.164Z,35.88
2019-04-07T20:26:18.618Z,38.10
2019-04-07T20:28:52.030Z,40.00
2019-04-07T20:31:23.946Z,44.83
2019-04-07T20:34:02.139Z,44.40
2019-04-07T20:36:40.150Z,47.30
2019-04-07T20:39:32.561Z,48.30
2019-04-07T20:42:03.045Z,50.28
2019-04-07T20:44:43.205Z,50.43
2019-04-07T20:47:20.850Z,53.90
2019-04-07T20:49:58.790Z,52.23
2019-04-07T20:52:36.206Z,53.87
2019-04-07T20:55:15.383Z,55.67
2019-04-07T20:58:12.228Z,59.13
2019-04-07T21:00:52.252Z,58.93
2019-04-07T21:03:25.193Z,64.72
2019-04-07T21:06:03.303Z,64.17
2019-04-07T21:08:49.543Z,67.30
2019-04-07T21:11:21.560Z,65.40
2019-04-07T21:13:52.861Z,69.17
2019-04-07T21:16:41.165Z,70.57
2019-04-07T21:19:12.508Z,72.77
2019-04-07T21:21:45.622Z,72.27
2019-04-07T21:24:29.272Z,71.33
2019-04-07T21:27:02.467Z,73.90
2019-04-07T21:29:34.477Z,74.85
2019-04-07T21:32:09.649Z,77.87
2019-04-07T21:35:00.361Z,78.87
2019-04-07T21:37:48.973Z,76.60
2019-04-07T21:40:18.747Z,78.92
2019-04-07T21:43:02.666Z,78.70
2019-04-07T21:45:40.995Z,82.13
2019-04-07T21:48:09.680Z,78.80
2019-04-07T21:50:42.508Z,78.97
2019-04-07T21:53:26.038Z,84.30
2019-04-07T21:55:57.770Z,80.87
2019-04-07T21:58:34.591Z,81.27
2019-04-07T22:01:09.490Z,80.32
2019-04-07T22:03:45.480Z,81.10
2019-04-07T22:06:23.056Z,82.43
2019-04-07T22:08:54.232Z,82.37
2019-04-07T22:11:26.719Z,81.77
2019-04-07T22:13:55.416Z,86.37
2019-04-07T22:16:25.582Z,81.80
2019-04-07T22:18:56.908Z,83.20
2019-04-07T22:21:26.359Z,81.42
2019-04-07T22:23:56.198Z,85.73
2019-04-07T22:26:26.379Z,83.45
2019-04-07T22:28:56.912Z,86.00
2019-04-07T22:31:31.380Z,83.67
2019-04-07T22:34:02.362Z,83.17
2019-04-07T22:36:31.908Z,85.80
2019-04-07T22:39:02.483Z,85.57
2019-04-07T22:41:33.649Z,84.57
2019-04-07T22:44:03.839Z,86.45
2019-04-07T22:46:33.498Z,82.27
2019-04-07T22:49:03.124Z,84.73
2019-04-07T22:51:32.747Z,85.77
2019-04-07T22:54:03.227Z,86.30
2019-04-07T22:56:36.395Z,85.67
2019-04-07T22:59:06.014Z,83.80
2019-04-07T23:01:36.322Z,87.30
2019-04-07T23:04:05.746Z,87.33
2019-04-07T23:06:35.100Z,85.47
2019-04-07T23:09:06.678Z,86.93
2019-04-07T23:11:36.494Z,86.43
2019-04-07T23:14:05.968Z,83.70
2019-04-07T23:16:35.979Z,85.83
2019-04-07T23:19:06.731Z,84.70
2019-04-07T23:21:37.478Z,86.03
2019-04-07T23:24:08.004Z,85.40
2019-04-07T23:26:38.220Z,86.97
2019-04-07T23:29:07.983Z,86.23
2019-04-07T23:31:38.385Z,92.17
2019-04-07T23:34:08.439Z,87.47
2019-04-07T23:36:38.245Z,89.27
2019-04-07T23:39:08.019Z,91.60
2019-04-07T23:41:37.476Z,95.03
2019-04-07T23:44:07.351Z,94.40
2019-04-07T23:46:36.773Z,91.53
2019-04-07T23:49:06.211Z,94.43
2019-04-07T23:51:35.619Z,92.83
2019-04-07T23:54:12.631Z,94.13
2019-04-07T23:56:43.631Z,93.03
2019-04-07T23:59:14.731Z,97.03
